Time;durP1;ratioP1;P1;durP2;ratioP2;P2;SDS_P1;SDS_P2;PMS_P1;PMS_P2;Temp;Humidity;BMP_temperature;BMP_pressure;BME280_temperature;BME280_humidity;BME280_pressure;Samples;Min_cycle;Max_cycle;Signal;HPM_P1;HPM_P2
2022/10/03 00:01:59;;;;;;;20.07;11.90;;;;;;;;;;5016131;28;92084;-52
2022/10/03 00:04:33;;;;;;;20.00;12.50;;;;;;;;;;5016361;28;93175;-52
2022/10/03 00:07:04;;;;;;;16.77;10.17;;;;;;;;;;5015920;28;92701;-53
2022/10/03 00:09:50;;;;;;;21.03;11.60;;;;;;;;;;5016756;28;92138;-52
2022/10/03 00:12:20;;;;;;;20.87;11.70;;;;;;;;;;5017267;28;91347;-52
2022/10/03 00:14:51;;;;;;;19.73;12.43;;;;;;;;;;5008276;28;93019;-52
2022/10/03 00:17:22;;;;;;;21.10;12.00;;;;;;;;;;4997995;28;94013;-52
2022/10/03 00:19:52;;;;;;;17.47;11.50;;;;;;;;;;5011737;28;93102;-52
2022/10/03 00:22:25;;;;;;;22.23;11.00;;;;;;;;;;5019666;28;92120;-52
2022/10/03 00:24:57;;;;;;;17.30;10.20;;;;;;;;;;5021051;28;93970;-53
2022/10/03 00:27:31;;;;;;;16.43;9.60;;;;;;;;;;5008539;28;92669;-52
2022/10/03 00:30:05;;;;;;;20.30;11.23;;;;;;;;;;5017566;28;92050;-52
2022/10/03 00:32:40;;;;;;;18.87;10.57;;;;;;;;;;5020912;28;92154;-51
2022/10/03 00:35:13;;;;;;;27.47;11.17;;;;;;;;;;5021310;28;93992;-52
2022/10/03 00:37:44;;;;;;;17.40;11.30;;;;;;;;;;5021036;28;93978;-52
2022/10/03 00:40:31;;;;;;;21.37;11.60;;;;;;;;;;5020644;28;91986;-52
2022/10/03 00:43:04;;;;;;;21.77;11.10;;;;;;;;;;5020394;28;91837;-52
2022/10/03 00:45:37;;;;;;;21.73;12.13;;;;;;;;;;5020146;28;95073;-52
2022/10/03 00:48:27;;;;;;;21.70;11.73;;;;;;;;;;5020741;28;92699;-52
2022/10/03 00:51:00;;;;;;;24.93;12.77;;;;;;;;;;5020498;28;92044;-53
2022/10/03 00:53:34;;;;;;;24.30;11.53;;;;;;;;;;5020872;28;91964;-53
2022/10/03 00:56:04;;;;;;;23.17;13.27;;;;;;;;;;5020112;28;94171;-53
2022/10/03 00:58:38;;;;;;;25.47;14.40;;;;;;;;;;5019146;28;93941;-52
2022/10/03 01:01:22;;;;;;;25.50;13.50;;;;;;;;;;5018175;28;92154;-52
2022/10/03 01:03:55;;;;;;;24.80;12.03;;;;;;;;;;5016690;28;91375;-53
2022/10/03 01:06:27;;;;;;;27.53;13.87;;;;;;;;;;5006618;28;94224;-53
2022/10/03 01:09:07;;;;;;;19.37;12.47;;;;;;;;;;5013412;28;93615;-53
2022/10/03 01:11:41;;;;;;;25.60;13.80;;;;;;;;;;5016968;28;93387;-52
2022/10/03 01:14:13;;;;;;;27.37;14.93;;;;;;;;;;5016749;28;92355;-53
2022/10/03 01:16:43;;;;;;;31.77;15.77;;;;;;;;;;5018242;28;93205;-53
2022/10/03 01:19:22;;;;;;;28.00;14.57;;;;;;;;;;5019084;28;92717;-52
2022/10/03 01:21:51;;;;;;;21.67;12.43;;;;;;;;;;5019006;28;92066;-52
2022/10/03 01:24:25;;;;;;;24.83;14.17;;;;;;;;;;5019736;28;92113;-53
2022/10/03 01:26:55;;;;;;;20.83;13.20;;;;;;;;;;5019584;28;94016;-53
2022/10/03 01:32:14;;;;;;;24.33;15.43;;;;;;;;;;5019744;28;91960;-53
2022/10/03 01:34:43;;;;;;;24.33;14.73;;;;;;;;;;5018114;28;92191;-53
2022/10/03 01:37:14;;;;;;;21.47;13.30;;;;;;;;;;5018372;28;92884;-53
2022/10/03 01:39:43;;;;;;;21.23;12.83;;;;;;;;;;5019035;28;94831;-51
2022/10/03 01:42:12;;;;;;;25.17;14.07;;;;;;;;;;5019784;28;92222;-52
2022/10/03 01:44:45;;;;;;;20.83;12.43;;;;;;;;;;5018764;28;92213;-51
2022/10/03 01:47:16;;;;;;;23.53;13.03;;;;;;;;;;5019492;28;94136;-53
2022/10/03 01:49:45;;;;;;;20.47;12.73;;;;;;;;;;5019029;28;93749;-54
2022/10/03 01:52:16;;;;;;;22.70;13.60;;;;;;;;;;5018792;28;92640;-52
2022/10/03 01:54:45;;;;;;;18.63;12.47;;;;;;;;;;5017774;28;91577;-53
2022/10/03 01:57:16;;;;;;;25.63;13.77;;;;;;;;;;5019076;28;94140;-53
2022/10/03 01:59:48;;;;;;;27.60;14.00;;;;;;;;;;5019617;28;94027;-53
2022/10/03 02:02:20;;;;;;;22.93;13.30;;;;;;;;;;5018850;28;92917;-52
2022/10/03 02:04:49;;;;;;;30.07;13.50;;;;;;;;;;5018449;28;92823;-52
2022/10/03 02:07:20;;;;;;;27.33;15.00;;;;;;;;;;5017503;28;93726;-52
2022/10/03 02:09:51;;;;;;;24.70;14.63;;;;;;;;;;5016397;28;95000;-53
2022/10/03 02:12:24;;;;;;;28.83;16.03;;;;;;;;;;5018435;28;92145;-53
2022/10/03 02:14:54;;;;;;;26.67;15.33;;;;;;;;;;5018055;28;92105;-52
2022/10/03 02:17:26;;;;;;;27.53;16.20;;;;;;;;;;5019169;28;93945;-52
2022/10/03 02:19:57;;;;;;;28.80;17.07;;;;;;;;;;5018376;28;93925;-53
2022/10/03 02:22:34;;;;;;;28.10;16.20;;;;;;;;;;5017717;28;92127;-53
2022/10/03 02:25:06;;;;;;;28.93;17.77;;;;;;;;;;5018784;28;92016;-52
2022/10/03 02:27:51;;;;;;;36.87;18.00;;;;;;;;;;5017697;28;94222;-51
2022/10/03 02:30:21;;;;;;;32.77;17.03;;;;;;;;;;5017505;28;93770;-52
2022/10/03 02:33:00;;;;;;;30.33;16.43;;;;;;;;;;5017741;28;92830;-53
2022/10/03 02:35:34;;;;;;;35.47;20.03;;;;;;;;;;5017232;28;92150;-52
2022/10/03 02:38:26;;;;;;;29.93;18.37;;;;;;;;;;5016910;28;94244;-52
2022/10/03 02:41:14;;;;;;;30.27;16.77;;;;;;;;;;4943218;28;93972;-53
2022/10/03 02:43:54;;;;;;;27.73;16.60;;;;;;;;;;5017473;28;92175;-52
2022/10/03 02:46:47;;;;;;;27.43;16.97;;;;;;;;;;5013120;28;92757;-52
2022/10/03 02:49:24;;;;;;;33.53;19.10;;;;;;;;;;5017972;28;94072;-52
2022/10/03 02:51:58;;;;;;;24.37;15.87;;;;;;;;;;5018303;28;92961;-52
2022/10/03 02:54:45;;;;;;;34.40;19.03;;;;;;;;;;5018180;28;92983;-51
2022/10/03 02:57:28;;;;;;;26.63;16.67;;;;;;;;;;5017823;28;92192;-52
2022/10/03 03:00:07;;;;;;;29.50;17.47;;;;;;;;;;5001860;28;93223;-52
2022/10/03 03:02:54;;;;;;;30.77;15.00;;;;;;;;;;5017673;28;92643;-52
2022/10/03 03:05:40;;;;;;;28.40;16.40;;;;;;;;;;5019036;28;92033;-52
2022/10/03 03:08:26;;;;;;;30.43;15.93;;;;;;;;;;5002289;28;92508;-52
2022/10/03 03:11:21;;;;;;;25.03;14.90;;;;;;;;;;5018057;28;94300;-52
2022/10/03 03:13:58;;;;;;;30.47;16.93;;;;;;;;;;5017748;28;93870;-53
2022/10/03 03:16:37;;;;;;;23.67;16.17;;;;;;;;;;5018954;28;92032;-53
2022/10/03 03:19:10;;;;;;;27.53;16.20;;;;;;;;;;5017670;28;92174;-52
2022/10/03 03:21:40;;;;;;;31.93;16.67;;;;;;;;;;5017894;28;94115;-54
2022/10/03 03:24:12;;;;;;;32.93;15.03;;;;;;;;;;5018208;28;95215;-52
2022/10/03 03:26:45;;;;;;;26.93;15.40;;;;;;;;;;5018775;28;92153;-52
2022/10/03 03:29:16;;;;;;;30.13;14.90;;;;;;;;;;5018782;28;92053;-52
2022/10/03 03:31:45;;;;;;;28.43;16.33;;;;;;;;;;5018252;28;93312;-52
2022/10/03 03:34:15;;;;;;;24.73;15.07;;;;;;;;;;5017977;28;94208;-53
2022/10/03 03:36:44;;;;;;;26.53;14.70;;;;;;;;;;5018393;28;92073;-52
2022/10/03 03:39:16;;;;;;;28.30;14.83;;;;;;;;;;5018634;28;91374;-53
2022/10/03 03:41:50;;;;;;;30.27;14.90;;;;;;;;;;5017392;28;94111;-53
2022/10/03 03:44:38;;;;;;;26.80;14.63;;;;;;;;;;5016682;28;92967;-53
2022/10/03 03:47:13;;;;;;;23.27;14.77;;;;;;;;;;5017185;28;93012;-53
2022/10/03 03:49:47;;;;;;;31.57;15.97;;;;;;;;;;5017098;28;92028;-53
2022/10/03 03:52:21;;;;;;;21.80;15.13;;;;;;;;;;5015291;28;93776;-53
2022/10/03 03:55:00;;;;;;;25.40;15.07;;;;;;;;;;5015411;28;93846;-51
2022/10/03 03:57:43;;;;;;;24.57;14.43;;;;;;;;;;5016960;28;92108;-52
2022/10/03 04:00:17;;;;;;;24.40;14.80;;;;;;;;;;5016140;28;92128;-53
2022/10/03 04:03:04;;;;;;;26.20;15.43;;;;;;;;;;5017575;28;94129;-52
2022/10/03 04:05:34;;;;;;;24.27;13.67;;;;;;;;;;5017702;28;93719;-53
2022/10/03 04:08:11;;;;;;;23.87;15.33;;;;;;;;;;5004884;28;91887;-52
2022/10/03 04:10:44;;;;;;;29.57;12.70;;;;;;;;;;5016594;28;93618;-52
2022/10/03 04:13:31;;;;;;;27.13;13.97;;;;;;;;;;4999318;28;95167;-52
2022/10/03 04:16:08;;;;;;;25.83;13.67;;;;;;;;;;5017076;28;94882;-52
2022/10/03 04:18:59;;;;;;;22.20;13.90;;;;;;;;;;5016855;28;92209;-52
2022/10/03 04:21:38;;;;;;;27.80;15.33;;;;;;;;;;5002173;28;92021;-54
2022/10/03 04:24:22;;;;;;;21.90;13.43;;;;;;;;;;5017335;28;93985;-52
2022/10/03 04:26:58;;;;;;;24.50;14.73;;;;;;;;;;5014687;28;92924;-53
2022/10/03 04:29:31;;;;;;;23.27;13.07;;;;;;;;;;5017405;28;92016;-52
2022/10/03 04:32:06;;;;;;;28.00;15.73;;;;;;;;;;5015692;28;91471;-52
2022/10/03 04:34:38;;;;;;;27.50;16.83;;;;;;;;;;5016204;28;92987;-52
2022/10/03 04:37:09;;;;;;;26.90;14.73;;;;;;;;;;5017332;28;93768;-52
2022/10/03 04:39:38;;;;;;;27.87;15.30;;;;;;;;;;5016864;28;93925;-53
2022/10/03 04:42:11;;;;;;;20.93;14.23;;;;;;;;;;5017197;28;92162;-52
2022/10/03 04:44:44;;;;;;;25.53;14.33;;;;;;;;;;5016647;28;94012;-51
2022/10/03 04:47:17;;;;;;;28.37;15.63;;;;;;;;;;5017408;28;92800;-53
2022/10/03 04:49:46;;;;;;;32.67;17.40;;;;;;;;;;5015742;28;92076;-52
2022/10/03 04:52:16;;;;;;;24.67;14.57;;;;;;;;;;5016934;28;92024;-51
2022/10/03 04:54:48;;;;;;;26.07;15.17;;;;;;;;;;5017180;28;93169;-52
2022/10/03 04:57:19;;;;;;;24.37;15.07;;;;;;;;;;5016614;28;93185;-52
2022/10/03 04:59:49;;;;;;;24.83;14.20;;;;;;;;;;5017224;28;92122;-53
2022/10/03 05:02:33;;;;;;;26.33;13.43;;;;;;;;;;5017323;28;92798;-52
2022/10/03 05:05:13;;;;;;;26.17;14.53;;;;;;;;;;5012323;28;95444;-51
2022/10/03 05:07:43;;;;;;;28.87;15.30;;;;;;;;;;5005442;28;94417;-51
2022/10/03 05:10:32;;;;;;;26.53;14.67;;;;;;;;;;5020907;28;92168;-52
2022/10/03 05:13:02;;;;;;;28.87;15.43;;;;;;;;;;5010319;28;94539;-52
2022/10/03 05:15:32;;;;;;;30.37;15.10;;;;;;;;;;5019772;28;95000;-52
2022/10/03 05:18:02;;;;;;;24.53;15.23;;;;;;;;;;5020318;28;93686;-51
2022/10/03 05:20:44;;;;;;;22.43;14.57;;;;;;;;;;5018734;28;92174;-52
2022/10/03 05:23:15;;;;;;;26.17;15.10;;;;;;;;;;5020413;28;92284;-51
2022/10/03 05:25:45;;;;;;;26.80;13.70;;;;;;;;;;5007130;28;93118;-52
2022/10/03 05:28:16;;;;;;;27.27;15.40;;;;;;;;;;5015771;28;92848;-52
2022/10/03 05:30:48;;;;;;;26.27;17.40;;;;;;;;;;5017753;28;93043;-50
2022/10/03 05:33:20;;;;;;;31.20;17.07;;;;;;;;;;5019763;28;92047;-51
2022/10/03 05:35:51;;;;;;;32.77;18.40;;;;;;;;;;5018781;28;94063;-49
2022/10/03 05:38:33;;;;;;;29.87;18.27;;;;;;;;;;5019277;28;94003;-50
2022/10/03 05:41:02;;;;;;;30.37;16.17;;;;;;;;;;5019377;28;92064;-51
2022/10/03 05:43:35;;;;;;;29.03;17.57;;;;;;;;;;5018533;28;92119;-51
2022/10/03 05:46:04;;;;;;;28.57;15.67;;;;;;;;;;5009115;28;94213;-49
2022/10/03 05:48:33;;;;;;;30.53;17.00;;;;;;;;;;5015162;28;92985;-49
2022/10/03 05:51:13;;;;;;;34.13;17.07;;;;;;;;;;5018958;28;92099;-49
2022/10/03 05:53:52;;;;;;;34.77;18.33;;;;;;;;;;5019308;28;92183;-49
2022/10/03 05:56:22;;;;;;;33.50;17.90;;;;;;;;;;5015397;28;94135;-49
2022/10/03 05:59:08;;;;;;;32.60;17.13;;;;;;;;;;5013301;28;95030;-50
2022/10/03 06:01:56;;;;;;;30.43;16.67;;;;;;;;;;5016862;28;94056;-50
2022/10/03 06:04:35;;;;;;;27.57;17.17;;;;;;;;;;5018111;28;92106;-50
2022/10/03 06:07:11;;;;;;;30.37;16.30;;;;;;;;;;5018356;28;94296;-49
2022/10/03 06:09:56;;;;;;;27.27;15.83;;;;;;;;;;5017394;28;93804;-49
2022/10/03 06:12:25;;;;;;;33.00;17.10;;;;;;;;;;5006794;28;92164;-50
2022/10/03 06:15:01;;;;;;;28.27;15.30;;;;;;;;;;5014293;28;91232;-49
2022/10/03 06:17:45;;;;;;;32.73;18.73;;;;;;;;;;5013571;28;93051;-50
2022/10/03 06:20:20;;;;;;;30.87;15.53;;;;;;;;;;5015030;28;94049;-49
2022/10/03 06:23:11;;;;;;;25.60;15.90;;;;;;;;;;5017540;28;92895;-49
2022/10/03 06:25:59;;;;;;;25.20;16.23;;;;;;;;;;5017261;28;92065;-49
2022/10/03 06:28:31;;;;;;;27.93;14.10;;;;;;;;;;5015973;28;93113;-49
2022/10/03 06:31:10;;;;;;;26.40;16.37;;;;;;;;;;5017240;28;92852;-49
2022/10/03 06:33:57;;;;;;;28.87;14.40;;;;;;;;;;5014566;28;92160;-49
2022/10/03 06:36:28;;;;;;;24.87;14.93;;;;;;;;;;5005126;28;92140;-50
2022/10/03 06:39:15;;;;;;;29.80;15.63;;;;;;;;;;5017943;28;92721;-50
2022/10/03 06:41:58;;;;;;;28.10;15.00;;;;;;;;;;5017861;28;93919;-49
2022/10/03 06:44:35;;;;;;;24.80;13.67;;;;;;;;;;5006708;28;92183;-49
2022/10/03 06:47:11;;;;;;;24.87;14.50;;;;;;;;;;5015962;28;92352;-49
2022/10/03 06:49:43;;;;;;;27.63;16.20;;;;;;;;;;5015576;28;95130;-50
2022/10/03 06:52:15;;;;;;;23.13;14.13;;;;;;;;;;5015550;28;94895;-49
2022/10/03 06:55:03;;;;;;;22.50;14.17;;;;;;;;;;5017305;28;92028;-50
2022/10/03 06:57:35;;;;;;;29.07;15.27;;;;;;;;;;5011172;28;92142;-49
2022/10/03 07:00:14;;;;;;;22.17;13.37;;;;;;;;;;5017591;28;93368;-50
2022/10/03 07:03:03;;;;;;;22.50;13.50;;;;;;;;;;5002597;28;93840;-49
2022/10/03 07:05:39;;;;;;;18.93;12.10;;;;;;;;;;5004638;28;92234;-49
2022/10/03 07:08:25;;;;;;;21.57;13.33;;;;;;;;;;5018293;28;91339;-50
2022/10/03 07:11:05;;;;;;;24.80;13.47;;;;;;;;;;5018458;28;93104;-49
2022/10/03 07:13:49;;;;;;;25.03;12.47;;;;;;;;;;5014607;28;93310;-51
2022/10/03 07:16:32;;;;;;;22.70;12.40;;;;;;;;;;5000088;28;93113;-49
2022/10/03 07:19:06;;;;;;;28.13;15.17;;;;;;;;;;5000706;28;92721;-49
2022/10/03 07:21:42;;;;;;;31.53;17.70;;;;;;;;;;5017065;28;92539;-49
2022/10/03 07:24:25;;;;;;;27.93;14.90;;;;;;;;;;5012609;28;93667;-50
2022/10/03 07:27:00;;;;;;;32.90;16.13;;;;;;;;;;5015489;28;92084;-50
2022/10/03 07:29:34;;;;;;;30.47;15.37;;;;;;;;;;5015023;28;92589;-49
2022/10/03 07:32:16;;;;;;;28.00;15.20;;;;;;;;;;5016571;28;94159;-49
2022/10/03 07:35:17;;;;;;;20.67;11.13;;;;;;;;;;5017767;28;94069;-48
2022/10/03 07:41:11;;;;;;;16.70;8.93;;;;;;;;;;5018395;28;92540;-50
2022/10/03 07:43:58;;;;;;;9.93;5.57;;;;;;;;;;4956867;28;95128;-50
2022/10/03 07:46:43;;;;;;;7.37;4.70;;;;;;;;;;5014902;28;94788;-50
2022/10/03 07:49:18;;;;;;;10.67;5.13;;;;;;;;;;5017848;28;92118;-50
2022/10/03 07:51:49;;;;;;;10.77;4.03;;;;;;;;;;5019353;28;92204;-51
2022/10/03 07:54:24;;;;;;;9.33;4.20;;;;;;;;;;5018453;28;94058;-50
2022/10/03 07:56:56;;;;;;;8.10;4.07;;;;;;;;;;5018365;28;93985;-50
2022/10/03 07:59:32;;;;;;;10.10;5.40;;;;;;;;;;5018146;28;92052;-49
2022/10/03 08:02:04;;;;;;;11.00;5.33;;;;;;;;;;5019088;28;91356;-51
2022/10/03 08:04:39;;;;;;;15.43;5.37;;;;;;;;;;5017680;28;94328;-49
2022/10/03 08:07:12;;;;;;;14.37;6.53;;;;;;;;;;5017749;28;93922;-50
2022/10/03 08:09:56;;;;;;;8.50;5.40;;;;;;;;;;5017724;28;93136;-50
2022/10/03 08:12:43;;;;;;;10.60;5.60;;;;;;;;;;5018161;28;94324;-49
2022/10/03 08:15:14;;;;;;;11.30;5.07;;;;;;;;;;5016383;28;94120;-50
2022/10/03 08:17:57;;;;;;;11.40;5.70;;;;;;;;;;5017713;28;93384;-52
2022/10/03 08:20:30;;;;;;;10.87;5.23;;;;;;;;;;5004024;28;92337;-50
2022/10/03 08:23:02;;;;;;;13.00;5.40;;;;;;;;;;5019292;28;92224;-50
2022/10/03 08:25:34;;;;;;;7.90;5.50;;;;;;;;;;5016948;28;92109;-50
2022/10/03 08:28:13;;;;;;;11.80;5.03;;;;;;;;;;5016903;28;92608;-50
2022/10/03 08:30:46;;;;;;;6.80;3.77;;;;;;;;;;5017665;28;92933;-49
2022/10/03 08:33:18;;;;;;;12.47;4.10;;;;;;;;;;5017604;28;92169;-50
2022/10/03 08:36:07;;;;;;;8.10;5.30;;;;;;;;;;5016525;28;95094;-48
2022/10/03 08:39:02;;;;;;;7.13;4.37;;;;;;;;;;4996727;28;93629;-50
2022/10/03 08:42:02;;;;;;;7.37;4.37;;;;;;;;;;5017364;28;92069;-49
2022/10/03 08:45:00;;;;;;;6.77;4.93;;;;;;;;;;5014891;28;92097;-48
2022/10/03 08:47:37;;;;;;;8.27;3.60;;;;;;;;;;5019633;28;93133;-49
2022/10/03 08:50:10;;;;;;;8.80;4.63;;;;;;;;;;5020483;28;93718;-49
2022/10/03 08:52:42;;;;;;;4.73;3.43;;;;;;;;;;5020131;28;92076;-49
2022/10/03 08:55:21;;;;;;;5.43;3.30;;;;;;;;;;5020446;28;91318;-49
2022/10/03 08:58:03;;;;;;;5.50;2.80;;;;;;;;;;5020458;28;94247;-49
2022/10/03 09:00:33;;;;;;;8.10;3.40;;;;;;;;;;5018393;28;94091;-49
2022/10/03 09:03:22;;;;;;;5.23;2.77;;;;;;;;;;5016896;28;93061;-49
2022/10/03 09:06:43;;;;;;;4.23;2.77;;;;;;;;;;5021777;28;92169;-49
2022/10/03 09:09:42;;;;;;;7.33;2.97;;;;;;;;;;5020602;28;93235;-49
2022/10/03 09:12:22;;;;;;;6.77;2.90;;;;;;;;;;5020667;28;93769;-50
2022/10/03 09:14:57;;;;;;;7.83;2.20;;;;;;;;;;5020814;28;92056;-49
2022/10/03 09:17:56;;;;;;;4.03;2.23;;;;;;;;;;5020103;28;92096;-49
2022/10/03 09:20:43;;;;;;;4.27;2.57;;;;;;;;;;4914591;28;93177;-48
2022/10/03 09:23:29;;;;;;;7.00;2.97;;;;;;;;;;5011855;28;91666;-49
2022/10/03 09:26:03;;;;;;;3.23;2.10;;;;;;;;;;5008181;28;92029;-48
2022/10/03 09:28:49;;;;;;;3.07;2.13;;;;;;;;;;5014602;28;92125;-49
2022/10/03 09:31:20;;;;;;;4.23;2.03;;;;;;;;;;5000237;28;94254;-49
2022/10/03 09:33:54;;;;;;;2.77;2.27;;;;;;;;;;5013805;28;94792;-48
2022/10/03 09:36:52;;;;;;;4.10;2.03;;;;;;;;;;5020965;28;92702;-49
2022/10/03 09:39:34;;;;;;;4.77;2.10;;;;;;;;;;4918352;28;92447;-49
2022/10/03 09:42:19;;;;;;;3.13;1.63;;;;;;;;;;5003067;28;94305;-49
2022/10/03 09:45:01;;;;;;;3.00;1.63;;;;;;;;;;5018192;28;92782;-48
2022/10/03 09:47:33;;;;;;;4.77;1.27;;;;;;;;;;5018488;28;92161;-49
2022/10/03 09:50:18;;;;;;;2.30;1.60;;;;;;;;;;5020174;28;91336;-50
2022/10/03 09:52:50;;;;;;;2.47;1.80;;;;;;;;;;5019073;28;94349;-50
2022/10/03 09:55:28;;;;;;;2.30;1.90;;;;;;;;;;5016811;28;93875;-49
2022/10/03 09:58:10;;;;;;;1.83;1.40;;;;;;;;;;5019732;28;92845;-49
2022/10/03 10:00:55;;;;;;;1.57;1.30;;;;;;;;;;5020740;28;92186;-49
2022/10/03 10:03:43;;;;;;;2.23;1.23;;;;;;;;;;5018328;28;92249;-49
2022/10/03 10:06:29;;;;;;;2.60;1.67;;;;;;;;;;5018983;28;93845;-48
2022/10/03 10:09:12;;;;;;;2.07;1.60;;;;;;;;;;5020770;28;92097;-48
2022/10/03 10:11:49;;;;;;;1.47;1.10;;;;;;;;;;5020232;28;92127;-49
2022/10/03 10:14:25;;;;;;;2.67;1.37;;;;;;;;;;5020185;28;92383;-48
2022/10/03 10:17:08;;;;;;;1.27;1.17;;;;;;;;;;5018947;28;92692;-49
2022/10/03 10:19:54;;;;;;;2.77;1.20;;;;;;;;;;5018237;28;92071;-48
2022/10/03 10:22:39;;;;;;;1.07;0.97;;;;;;;;;;5019948;28;92372;-48
2022/10/03 10:25:25;;;;;;;3.30;1.40;;;;;;;;;;5003108;28;95298;-50
2022/10/03 10:28:06;;;;;;;1.50;1.07;;;;;;;;;;5016484;28;93930;-49
2022/10/03 10:30:53;;;;;;;1.77;1.30;;;;;;;;;;5015641;28;92111;-49
2022/10/03 10:33:40;;;;;;;4.20;1.33;;;;;;;;;;5016477;28;92273;-49
2022/10/03 10:36:17;;;;;;;1.33;1.17;;;;;;;;;;5017621;28;93894;-48
2022/10/03 10:39:00;;;;;;;2.00;1.00;;;;;;;;;;5019898;28;92801;-49
2022/10/03 10:41:48;;;;;;;9.50;1.20;;;;;;;;;;4976796;28;92141;-49
2022/10/03 10:44:40;;;;;;;1.77;1.53;;;;;;;;;;5017549;28;93605;-49
2022/10/03 10:47:13;;;;;;;2.63;1.00;;;;;;;;;;5018238;28;94719;-49
2022/10/03 10:49:59;;;;;;;1.77;1.00;;;;;;;;;;5019208;28;94106;-48
2022/10/03 10:52:32;;;;;;;1.60;0.90;;;;;;;;;;4986684;28;93296;-49
2022/10/03 10:55:14;;;;;;;1.23;0.87;;;;;;;;;;5008074;28;92196;-49
2022/10/03 10:58:13;;;;;;;3.13;1.20;;;;;;;;;;5019461;28;93148;-49
2022/10/03 11:00:47;;;;;;;3.30;0.80;;;;;;;;;;4999705;28;92803;-49
2022/10/03 11:03:33;;;;;;;1.90;1.10;;;;;;;;;;5006477;28;91889;-49
2022/10/03 11:06:17;;;;;;;0.93;0.80;;;;;;;;;;5019764;28;92228;-49
2022/10/03 11:08:50;;;;;;;1.10;0.73;;;;;;;;;;5018958;28;93119;-49
2022/10/03 11:11:45;;;;;;;4.40;1.10;;;;;;;;;;5010794;28;93697;-50
2022/10/03 11:14:37;;;;;;;7.57;1.10;;;;;;;;;;4953632;28;92181;-49
2022/10/03 11:17:14;;;;;;;2.27;0.90;;;;;;;;;;4980133;28;92211;-50
2022/10/03 11:19:48;;;;;;;6.67;0.80;;;;;;;;;;4997274;28;93212;-48
2022/10/03 11:22:35;;;;;;;1.43;0.77;;;;;;;;;;4997356;28;95186;-49
2022/10/03 11:25:14;;;;;;;2.00;0.70;;;;;;;;;;4997999;28;92494;-49
2022/10/03 11:27:57;;;;;;;3.60;0.70;;;;;;;;;;4999082;28;91956;-50
2022/10/03 11:30:44;;;;;;;1.80;0.97;;;;;;;;;;5008942;28;93161;-50
2022/10/03 11:33:35;;;;;;;0.80;0.80;;;;;;;;;;5009021;28;93786;-50
2022/10/03 11:36:12;;;;;;;3.53;1.00;;;;;;;;;;5007170;28;92556;-48
2022/10/03 11:38:41;;;;;;;3.20;1.13;;;;;;;;;;4997788;28;91886;-50
2022/10/03 11:41:13;;;;;;;2.83;0.60;;;;;;;;;;5016325;28;93148;-49
2022/10/03 11:43:46;;;;;;;2.00;1.10;;;;;;;;;;4998306;28;93932;-50
2022/10/03 11:46:19;;;;;;;0.97;0.70;;;;;;;;;;5003978;28;92996;-50
2022/10/03 11:48:49;;;;;;;1.57;0.70;;;;;;;;;;5018376;28;92144;-50
2022/10/03 11:51:19;;;;;;;4.03;0.93;;;;;;;;;;5017751;28;93193;-49
2022/10/03 11:53:48;;;;;;;7.97;1.20;;;;;;;;;;5003247;28;92888;-49
2022/10/03 11:56:20;;;;;;;2.67;1.23;;;;;;;;;;4999133;28;92079;-49
2022/10/03 11:58:52;;;;;;;3.77;2.00;;;;;;;;;;5025419;28;92083;-50
2022/10/03 12:01:26;;;;;;;4.30;2.27;;;;;;;;;;5038618;28;94259;-50
2022/10/03 12:03:55;;;;;;;5.30;2.37;;;;;;;;;;5039479;28;93923;-50
2022/10/03 12:09:16;;;;;;;17.33;4.07;;;;;;;;;;5039103;28;91967;-50
2022/10/03 12:11:46;;;;;;;12.00;5.17;;;;;;;;;;5031728;28;95343;-49
2022/10/03 12:14:18;;;;;;;10.63;6.17;;;;;;;;;;4998128;28;93939;-50
2022/10/03 12:16:52;;;;;;;15.93;7.70;;;;;;;;;;4998962;28;92169;-51
2022/10/03 12:19:23;;;;;;;17.50;7.23;;;;;;;;;;5001092;28;92524;-49
2022/10/03 12:21:54;;;;;;;15.07;7.13;;;;;;;;;;5000631;28;93275;-49
2022/10/03 12:24:25;;;;;;;17.20;7.97;;;;;;;;;;5019310;28;92966;-50
2022/10/03 12:26:59;;;;;;;19.37;8.90;;;;;;;;;;5021825;28;92044;-49
2022/10/03 12:29:28;;;;;;;27.50;11.13;;;;;;;;;;5021475;28;91466;-50
2022/10/03 12:32:00;;;;;;;18.27;9.90;;;;;;;;;;5021262;28;93907;-49
2022/10/03 12:34:33;;;;;;;26.93;12.07;;;;;;;;;;5021545;28;92928;-49
2022/10/03 12:37:10;;;;;;;30.83;12.00;;;;;;;;;;5020988;28;92981;-51
2022/10/03 12:39:39;;;;;;;31.03;14.80;;;;;;;;;;5011596;28;91975;-49
2022/10/03 12:42:13;;;;;;;25.43;13.17;;;;;;;;;;5000621;28;94429;-49
2022/10/03 12:44:44;;;;;;;31.97;13.73;;;;;;;;;;5016375;28;92676;-49
2022/10/03 12:47:19;;;;;;;38.73;15.53;;;;;;;;;;5020976;28;91994;-49
2022/10/03 12:50:11;;;;;;;32.70;13.10;;;;;;;;;;5021325;28;92051;-49
2022/10/03 12:52:43;;;;;;;31.87;13.87;;;;;;;;;;5020754;28;93937;-49
2022/10/03 12:55:17;;;;;;;36.03;16.43;;;;;;;;;;5021079;28;93848;-49
2022/10/03 12:57:47;;;;;;;38.90;17.40;;;;;;;;;;5021446;28;92138;-51
2022/10/03 13:00:19;;;;;;;31.73;15.20;;;;;;;;;;5021066;28;92144;-50
2022/10/03 13:02:49;;;;;;;40.00;18.47;;;;;;;;;;5020635;28;94044;-50
2022/10/03 13:05:24;;;;;;;44.37;19.27;;;;;;;;;;5020758;28;94827;-50
2022/10/03 13:07:56;;;;;;;38.07;18.60;;;;;;;;;;5020772;28;92149;-50
2022/10/03 13:10:28;;;;;;;40.40;17.57;;;;;;;;;;5020413;28;92734;-50
2022/10/03 13:12:59;;;;;;;37.70;15.40;;;;;;;;;;5020153;28;93853;-50
2022/10/03 13:15:36;;;;;;;43.17;16.70;;;;;;;;;;5020326;28;92855;-50
2022/10/03 13:18:05;;;;;;;38.37;16.53;;;;;;;;;;5020281;28;92096;-50
2022/10/03 13:20:35;;;;;;;36.97;17.50;;;;;;;;;;5021067;28;91531;-49
2022/10/03 13:23:06;;;;;;;45.40;18.30;;;;;;;;;;5020021;28;94248;-50
2022/10/03 13:25:36;;;;;;;42.13;18.90;;;;;;;;;;5019485;28;93877;-48
2022/10/03 13:28:07;;;;;;;28.80;14.17;;;;;;;;;;5018944;28;93419;-50
2022/10/03 13:30:37;;;;;;;32.13;15.13;;;;;;;;;;5021932;28;92044;-50
2022/10/03 13:33:09;;;;;;;41.70;14.23;;;;;;;;;;5040087;28;93120;-50
2022/10/03 13:38:57;;;;;;;30.47;12.30;;;;;;;;;;5040335;28;91954;-49
2022/10/03 13:41:41;;;;;;;26.47;12.13;;;;;;;;;;5040073;28;92108;-50
2022/10/03 13:44:16;;;;;;;25.13;12.33;;;;;;;;;;5040390;28;92172;-50
2022/10/03 13:46:47;;;;;;;30.67;12.40;;;;;;;;;;5040486;28;94198;-49
2022/10/03 13:49:18;;;;;;;28.67;11.93;;;;;;;;;;5039286;28;92473;-49
2022/10/03 13:51:51;;;;;;;23.50;11.50;;;;;;;;;;5040276;28;92129;-49
2022/10/03 13:54:22;;;;;;;21.37;9.93;;;;;;;;;;5026437;28;95001;-49
2022/10/03 13:56:56;;;;;;;16.20;8.73;;;;;;;;;;5020614;28;93785;-50
2022/10/03 13:59:34;;;;;;;15.80;8.17;;;;;;;;;;5021302;28;91980;-48
2022/10/03 14:02:07;;;;;;;21.20;8.57;;;;;;;;;;5020166;28;92491;-50
2022/10/03 14:04:45;;;;;;;24.17;8.23;;;;;;;;;;5019536;28;95252;-50
2022/10/03 14:07:17;;;;;;;15.37;6.37;;;;;;;;;;5020076;28;92872;-49
2022/10/03 14:09:50;;;;;;;12.60;6.60;;;;;;;;;;5021104;28;91979;-50
2022/10/03 14:12:23;;;;;;;12.07;6.73;;;;;;;;;;5020578;28;91258;-50
2022/10/03 14:15:17;;;;;;;16.33;7.90;;;;;;;;;;5018588;28;92724;-50
2022/10/03 14:17:47;;;;;;;13.67;6.97;;;;;;;;;;5020183;28;93940;-50
2022/10/03 14:20:19;;;;;;;12.53;6.80;;;;;;;;;;5020038;28;93077;-50
2022/10/03 14:22:52;;;;;;;15.13;6.97;;;;;;;;;;5020703;28;92044;-49
2022/10/03 14:25:22;;;;;;;12.13;6.90;;;;;;;;;;5018597;28;93129;-49
2022/10/03 14:27:55;;;;;;;12.70;6.27;;;;;;;;;;5018142;28;94148;-50
2022/10/03 14:30:23;;;;;;;12.93;6.63;;;;;;;;;;5020433;28;91947;-50
2022/10/03 14:33:00;;;;;;;15.50;6.33;;;;;;;;;;5020130;28;92105;-50
2022/10/03 14:35:36;;;;;;;15.27;6.23;;;;;;;;;;5019476;28;93296;-49
2022/10/03 14:38:07;;;;;;;9.77;5.73;;;;;;;;;;5019942;28;92744;-50
2022/10/03 14:40:37;;;;;;;11.10;5.77;;;;;;;;;;5019598;28;91935;-49
2022/10/03 14:43:09;;;;;;;9.67;4.97;;;;;;;;;;5020278;28;92191;-50
2022/10/03 14:45:38;;;;;;;6.77;4.03;;;;;;;;;;5019263;28;95076;-49
2022/10/03 14:48:08;;;;;;;12.07;5.70;;;;;;;;;;5019468;28;94765;-49
2022/10/03 14:50:36;;;;;;;9.30;5.10;;;;;;;;;;5020102;28;91984;-50
2022/10/03 14:53:05;;;;;;;10.70;5.80;;;;;;;;;;5020213;28;92013;-50
2022/10/03 14:55:34;;;;;;;9.43;4.00;;;;;;;;;;5018833;28;94458;-50
2022/10/03 14:58:04;;;;;;;12.73;6.27;;;;;;;;;;5019618;28;94075;-50
2022/10/03 15:00:42;;;;;;;9.67;4.70;;;;;;;;;;5019807;28;92573;-49
2022/10/03 15:03:20;;;;;;;16.87;6.30;;;;;;;;;;5020625;28;91232;-49
2022/10/03 15:05:57;;;;;;;13.33;6.47;;;;;;;;;;5019612;28;93162;-50
2022/10/03 15:08:27;;;;;;;12.20;5.43;;;;;;;;;;5019179;28;93741;-50
2022/10/03 15:10:55;;;;;;;9.57;5.00;;;;;;;;;;5019377;28;93628;-51
2022/10/03 15:13:23;;;;;;;13.80;6.40;;;;;;;;;;5019023;28;92037;-49
2022/10/03 15:15:54;;;;;;;11.33;5.60;;;;;;;;;;5019158;28;94077;-50
2022/10/03 15:18:23;;;;;;;9.70;5.53;;;;;;;;;;5019223;28;92848;-50
2022/10/03 15:20:52;;;;;;;11.63;4.97;;;;;;;;;;5019319;28;93029;-50
2022/10/03 15:23:20;;;;;;;12.10;5.17;;;;;;;;;;5019318;28;92041;-50
2022/10/03 15:25:51;;;;;;;10.70;5.33;;;;;;;;;;5019460;28;93172;-50
2022/10/03 15:28:21;;;;;;;10.27;5.70;;;;;;;;;;5019579;28;92982;-50
2022/10/03 15:30:50;;;;;;;9.83;4.57;;;;;;;;;;5019395;28;92112;-50
2022/10/03 15:33:24;;;;;;;9.80;5.37;;;;;;;;;;5019278;28;92099;-49